createdAt,value
2023-11-23T00:03:23.550Z,8.28
2023-11-23T00:08:10.779Z,8.31
2023-11-23T00:13:00.479Z,8.14
2023-11-23T00:17:47.821Z,8.12
2023-11-23T00:22:35.010Z,8.19
2023-11-23T00:27:22.191Z,8.46
2023-11-23T00:32:12.207Z,8.25
2023-11-23T00:36:59.352Z,8.49
2023-11-23T00:41:47.817Z,8.32
2023-11-23T00:46:35.087Z,8.04
2023-11-23T00:51:24.809Z,7.63
2023-11-23T00:56:12.018Z,8.25
2023-11-23T01:00:59.218Z,8.61
2023-11-23T01:05:46.603Z,8.63
2023-11-23T01:10:36.517Z,8.65
2023-11-23T01:15:23.788Z,8.57
2023-11-23T01:20:11.979Z,8.65
2023-11-23T01:24:59.087Z,8.66
2023-11-23T01:29:49.110Z,8.66
2023-11-23T01:34:36.307Z,8.50
2023-11-23T01:39:23.417Z,8.67
2023-11-23T01:44:10.456Z,8.70
2023-11-23T01:49:02.016Z,8.73
2023-11-23T01:53:49.670Z,8.66
2023-11-23T01:58:37.171Z,8.57
2023-11-23T02:03:24.407Z,8.67
2023-11-23T02:08:14.342Z,8.80
2023-11-23T02:13:01.876Z,8.45
2023-11-23T02:17:59.522Z,8.67
2023-11-23T02:22:46.645Z,8.52
2023-11-23T02:27:36.408Z,8.36
2023-11-23T02:32:23.636Z,8.45
2023-11-23T02:37:10.747Z,8.31
2023-11-23T02:41:58.915Z,8.44
2023-11-23T02:46:49.282Z,8.34
2023-11-23T02:51:36.563Z,8.27
2023-11-23T02:56:23.734Z,8.25
2023-11-23T03:01:11.031Z,8.28
2023-11-23T03:06:02.224Z,8.17
2023-11-23T03:10:49.357Z,8.41
2023-11-23T03:15:36.505Z,8.44
2023-11-23T03:20:23.706Z,8.47
2023-11-23T03:25:13.635Z,8.24
2023-11-23T03:30:00.779Z,8.53
2023-11-23T03:34:48.018Z,8.49
2023-11-23T03:39:35.733Z,8.61
2023-11-23T03:44:25.892Z,8.53
2023-11-23T03:49:13.090Z,8.61
2023-11-23T03:54:00.319Z,8.74
2023-11-23T03:58:47.595Z,8.63
2023-11-23T04:03:40.705Z,8.74
2023-11-23T04:08:27.834Z,8.75
2023-11-23T04:13:15.124Z,8.80
2023-11-23T04:18:02.363Z,8.87
2023-11-23T04:22:52.179Z,8.73
2023-11-23T04:27:39.294Z,8.88
2023-11-23T04:32:26.376Z,8.60
2023-11-23T04:37:13.700Z,8.84
2023-11-23T04:42:03.671Z,8.80
2023-11-23T04:46:52.417Z,8.71
2023-11-23T04:51:39.536Z,8.66
2023-11-23T04:56:26.718Z,8.52
2023-11-23T05:01:16.635Z,8.39
2023-11-23T05:06:04.930Z,8.62
2023-11-23T05:10:52.287Z,8.54
2023-11-23T05:15:39.448Z,8.40
2023-11-23T05:20:29.297Z,8.41
2023-11-23T05:25:16.496Z,8.52
2023-11-23T05:30:04.170Z,8.35
2023-11-23T05:34:51.286Z,8.64
2023-11-23T05:39:43.872Z,8.66
2023-11-23T05:44:31.700Z,8.49
2023-11-23T05:49:19.098Z,8.70
2023-11-23T05:54:06.702Z,8.23
2023-11-23T05:58:56.519Z,8.60
2023-11-23T06:03:43.831Z,8.61
2023-11-23T06:08:31.089Z,8.64
2023-11-23T06:13:18.194Z,8.56
2023-11-23T06:18:13.805Z,8.52
2023-11-23T06:23:01.679Z,8.59
2023-11-23T06:27:52.244Z,8.25
2023-11-23T06:32:49.455Z,8.39
2023-11-23T06:37:39.387Z,8.36
2023-11-23T06:42:26.759Z,8.69
2023-11-23T06:47:14.004Z,8.23
2023-11-23T06:52:01.131Z,8.75
2023-11-23T06:56:51.075Z,7.70
2023-11-23T07:01:38.639Z,8.32
2023-11-23T07:06:28.245Z,8.61
2023-11-23T07:11:17.883Z,8.50
2023-11-23T07:16:08.427Z,8.27
2023-11-23T07:20:55.677Z,8.31
2023-11-23T07:25:43.167Z,8.40
2023-11-23T07:30:30.796Z,8.39
2023-11-23T07:35:20.845Z,8.62
2023-11-23T07:40:10.677Z,8.60
2023-11-23T07:44:58.068Z,8.50
2023-11-23T07:49:45.224Z,8.42
2023-11-23T07:54:35.047Z,8.36
2023-11-23T07:59:22.399Z,8.34
2023-11-23T08:04:09.781Z,8.30
2023-11-23T08:08:56.986Z,8.40
2023-11-23T08:13:46.768Z,8.14
2023-11-23T08:18:40.365Z,8.48
2023-11-23T08:23:34.152Z,8.63
2023-11-23T08:28:21.720Z,8.48
2023-11-23T08:33:11.538Z,8.84
2023-11-23T08:37:58.745Z,8.97
2023-11-23T08:42:45.980Z,9.07
2023-11-23T08:47:33.174Z,9.18
2023-11-23T08:52:23.008Z,9.15
2023-11-23T08:57:10.300Z,9.13
2023-11-23T09:02:05.512Z,9.11
2023-11-23T09:06:56.670Z,9.50
2023-11-23T09:11:46.735Z,9.52
2023-11-23T09:16:34.023Z,9.54
2023-11-23T09:21:37.982Z,8.87
2023-11-23T09:26:25.149Z,9.42
2023-11-23T09:31:18.507Z,10.06
2023-11-23T09:36:06.302Z,10.52
2023-11-23T09:40:58.284Z,10.75
2023-11-23T09:45:45.633Z,11.02
2023-11-23T09:50:39.041Z,12.27
2023-11-23T09:55:31.424Z,12.94
2023-11-23T10:00:31.175Z,13.81
2023-11-23T10:05:30.430Z,14.37
2023-11-23T10:10:32.765Z,13.56
2023-11-23T10:15:20.223Z,13.26
2023-11-23T10:20:17.972Z,13.39
2023-11-23T10:25:07.898Z,13.73
2023-11-23T10:30:04.141Z,13.40
2023-11-23T10:34:58.338Z,13.48
2023-11-23T10:39:50.614Z,13.35
2023-11-23T10:44:38.103Z,12.63
2023-11-23T10:49:28.930Z,13.00
2023-11-23T10:54:16.115Z,12.89
2023-11-23T10:59:07.623Z,12.52
2023-11-23T11:03:55.878Z,12.61
2023-11-23T11:08:49.738Z,12.60
2023-11-23T11:13:41.783Z,12.56
2023-11-23T11:18:30.157Z,12.42
2023-11-23T11:23:17.424Z,12.47
2023-11-23T11:28:09.435Z,12.45
2023-11-23T11:33:07.701Z,12.32
2023-11-23T11:37:55.982Z,12.46
2023-11-23T11:43:03.925Z,12.46
2023-11-23T11:47:59.979Z,11.73
2023-11-23T11:52:47.868Z,11.97
2023-11-23T11:57:41.237Z,12.03
2023-11-23T12:02:28.584Z,12.47
2023-11-23T12:07:18.444Z,12.42
2023-11-23T12:12:06.948Z,12.07
2023-11-23T12:16:54.940Z,12.30
2023-11-23T12:21:42.348Z,12.27
2023-11-23T12:26:33.693Z,12.32
2023-11-23T12:31:21.350Z,12.27
2023-11-23T12:36:10.456Z,12.27
2023-11-23T12:40:58.290Z,11.79
2023-11-23T12:50:52.702Z,11.98
2023-11-23T12:55:42.317Z,11.77
2023-11-23T13:00:33.924Z,11.83
2023-11-23T13:05:39.246Z,12.14
2023-11-23T13:10:31.584Z,11.88
2023-11-23T13:15:30.363Z,11.74
2023-11-23T13:20:59.798Z,11.35
2023-11-23T13:25:50.487Z,11.63
2023-11-23T13:30:46.213Z,12.21
2023-11-23T13:35:38.637Z,11.61
2023-11-23T13:40:36.100Z,12.12
2023-11-23T13:45:25.708Z,11.11
2023-11-23T13:50:13.240Z,11.47
2023-11-23T13:55:05.847Z,11.62
2023-11-23T13:59:58.099Z,11.96
2023-11-23T14:04:46.350Z,11.50
2023-11-23T14:09:33.665Z,11.85
2023-11-23T14:14:20.771Z,11.99
2023-11-23T14:19:23.242Z,11.43
2023-11-23T14:24:10.913Z,11.94
2023-11-23T14:28:58.185Z,11.61
2023-11-23T14:33:45.628Z,11.63
2023-11-23T14:38:35.404Z,11.88
2023-11-23T14:43:22.672Z,11.80
2023-11-23T14:48:10.047Z,11.91
2023-11-23T14:52:57.736Z,11.44
2023-11-23T14:57:49.512Z,11.56
2023-11-23T15:02:39.180Z,11.86
2023-11-23T15:07:28.753Z,11.77
2023-11-23T15:12:16.820Z,11.60
2023-11-23T15:17:06.675Z,11.68
2023-11-23T15:21:53.950Z,11.73
2023-11-23T15:26:41.179Z,11.76
2023-11-23T15:31:28.730Z,11.72
2023-11-23T15:36:18.653Z,11.62
2023-11-23T15:41:06.023Z,11.43
2023-11-23T15:45:53.401Z,11.44
2023-11-23T15:50:40.843Z,11.57
2023-11-23T15:55:30.938Z,11.35
2023-11-23T16:00:18.878Z,11.20
2023-11-23T16:05:06.936Z,11.25
2023-11-23T16:09:54.142Z,11.16
2023-11-23T16:14:45.881Z,11.39
2023-11-23T16:19:33.116Z,11.23
2023-11-23T16:24:32.513Z,11.14
2023-11-23T16:29:19.726Z,11.38
2023-11-23T16:34:09.974Z,11.14
2023-11-23T16:38:57.140Z,11.38
2023-11-23T16:43:44.461Z,11.37
2023-11-23T16:48:31.674Z,11.32
2023-11-23T16:53:21.489Z,11.34
2023-11-23T16:58:08.673Z,11.35
2023-11-23T17:03:05.129Z,10.74
2023-11-23T17:07:55.427Z,11.33
2023-11-23T17:12:45.540Z,11.29
2023-11-23T17:17:32.728Z,11.27
2023-11-23T17:22:19.947Z,11.34
2023-11-23T17:27:11.959Z,10.89
2023-11-23T17:32:02.203Z,11.37
2023-11-23T17:36:49.497Z,11.15
2023-11-23T17:41:36.675Z,10.62
2023-11-23T17:46:24.119Z,11.10
2023-11-23T17:51:14.056Z,11.40
2023-11-23T17:56:01.850Z,10.80
2023-11-23T18:00:49.223Z,11.25
2023-11-23T18:10:43.266Z,11.09
2023-11-23T18:15:30.589Z,10.95
2023-11-23T18:20:17.976Z,11.19
2023-11-23T18:25:05.983Z,10.99
2023-11-23T18:29:56.096Z,11.36
2023-11-23T18:34:43.438Z,11.39
2023-11-23T18:39:31.280Z,11.07
2023-11-23T18:44:18.668Z,11.46
2023-11-23T18:49:10.733Z,11.01
2023-11-23T18:54:00.318Z,11.47
2023-11-23T18:58:48.094Z,11.41
2023-11-23T19:03:41.215Z,11.31
2023-11-23T19:08:31.418Z,11.17
2023-11-23T19:13:19.691Z,11.33
2023-11-23T19:18:08.139Z,11.88
2023-11-23T19:22:56.003Z,11.85
2023-11-23T19:28:01.688Z,12.20
2023-11-23T19:32:49.708Z,12.13
2023-11-23T19:37:37.884Z,11.48
2023-11-23T19:42:28.061Z,12.35
2023-11-23T19:47:19.407Z,12.27
2023-11-23T19:52:13.117Z,11.58
2023-11-23T19:57:00.842Z,12.30
2023-11-23T20:02:01.351Z,12.32
2023-11-23T20:06:53.301Z,11.76
2023-11-23T20:11:45.296Z,11.18
2023-11-23T20:16:34.112Z,11.53
2023-11-23T20:21:21.910Z,11.75
2023-11-23T20:26:12.011Z,11.35
2023-11-23T20:30:59.907Z,11.16
2023-11-23T20:35:47.590Z,12.08
2023-11-23T20:40:36.945Z,11.62
2023-11-23T20:45:27.086Z,11.38
2023-11-23T20:50:14.312Z,11.84
2023-11-23T20:55:02.086Z,12.38
2023-11-23T20:59:50.016Z,12.25
2023-11-23T21:04:51.025Z,12.30
2023-11-23T21:09:38.886Z,12.39
2023-11-23T21:14:26.072Z,12.18
2023-11-23T21:19:13.298Z,11.85
2023-11-23T21:24:04.073Z,11.79
2023-11-23T21:28:51.209Z,11.46
2023-11-23T21:33:38.626Z,11.53
2023-11-23T21:38:25.908Z,11.21
2023-11-23T21:43:15.878Z,11.09
2023-11-23T21:48:06.391Z,11.12
2023-11-23T21:52:55.232Z,11.10
2023-11-23T21:57:42.652Z,11.18
2023-11-23T22:02:32.522Z,10.64
2023-11-23T22:07:19.671Z,11.09
2023-11-23T22:12:07.503Z,11.02
2023-11-23T22:16:56.346Z,11.13
2023-11-23T22:21:46.934Z,10.89
2023-11-23T22:26:36.100Z,10.55
2023-11-23T22:31:24.347Z,10.41
2023-11-23T22:36:12.958Z,10.93
2023-11-23T22:41:03.718Z,10.85
2023-11-23T22:45:53.147Z,10.86
2023-11-23T22:50:40.459Z,10.82
2023-11-23T22:55:27.685Z,10.36
2023-11-23T23:00:18.242Z,10.39
2023-11-23T23:05:06.663Z,10.79
2023-11-23T23:09:53.865Z,10.51
2023-11-23T23:14:41.334Z,10.71
2023-11-23T23:19:31.063Z,10.45
2023-11-23T23:24:18.338Z,10.64
2023-11-23T23:29:05.599Z,10.38
2023-11-23T23:33:52.826Z,10.47
2023-11-23T23:38:42.622Z,10.42
2023-11-23T23:43:29.746Z,10.39
2023-11-23T23:48:16.874Z,10.23
2023-11-23T23:53:03.936Z,10.36
2023-11-23T23:57:53.662Z,10.17
